sensor_id;sensor_type;location;lat;lon;timestamp;P1;durP1;ratioP1;P2;durP2;ratioP2
77016;SDS011;65949;53.132;17.930;2024-03-17T00:01:11;8.40;;;1.00;;
77016;SDS011;65949;53.132;17.930;2024-03-17T00:03:58;10.50;;;1.10;;
77016;SDS011;65949;53.132;17.930;2024-03-17T00:06:25;13.10;;;1.20;;
77016;SDS011;65949;53.132;17.930;2024-03-17T00:08:51;9.20;;;1.00;;
77016;SDS011;65949;53.132;17.930;2024-03-17T00:11:18;11.20;;;1.20;;
77016;SDS011;65949;53.132;17.930;2024-03-17T00:13:44;8.20;;;0.90;;
77016;SDS011;65949;53.132;17.930;2024-03-17T00:16:11;9.60;;;1.00;;
77016;SDS011;65949;53.132;17.930;2024-03-17T00:18:39;9.80;;;1.20;;
77016;SDS011;65949;53.132;17.930;2024-03-17T00:21:07;7.00;;;1.00;;
77016;SDS011;65949;53.132;17.930;2024-03-17T00:23:34;8.00;;;0.70;;
77016;SDS011;65949;53.132;17.930;2024-03-17T00:26:01;11.40;;;1.50;;
77016;SDS011;65949;53.132;17.930;2024-03-17T00:28:27;7.40;;;0.70;;
77016;SDS011;65949;53.132;17.930;2024-03-17T00:30:54;10.90;;;1.30;;
77016;SDS011;65949;53.132;17.930;2024-03-17T00:33:21;8.70;;;0.70;;
77016;SDS011;65949;53.132;17.930;2024-03-17T00:35:48;7.70;;;0.70;;
77016;SDS011;65949;53.132;17.930;2024-03-17T00:38:14;9.70;;;1.10;;
77016;SDS011;65949;53.132;17.930;2024-03-17T00:40:41;8.50;;;0.90;;
77016;SDS011;65949;53.132;17.930;2024-03-17T00:43:07;6.70;;;0.90;;
77016;SDS011;65949;53.132;17.930;2024-03-17T00:45:34;9.20;;;1.20;;
77016;SDS011;65949;53.132;17.930;2024-03-17T00:48:00;9.00;;;1.00;;
77016;SDS011;65949;53.132;17.930;2024-03-17T00:50:27;8.70;;;0.80;;
77016;SDS011;65949;53.132;17.930;2024-03-17T00:52:53;5.50;;;0.60;;
77016;SDS011;65949;53.132;17.930;2024-03-17T00:55:20;10.20;;;0.90;;
77016;SDS011;65949;53.132;17.930;2024-03-17T00:57:47;7.10;;;0.60;;
77016;SDS011;65949;53.132;17.930;2024-03-17T01:00:14;5.80;;;0.80;;
77016;SDS011;65949;53.132;17.930;2024-03-17T01:02:41;10.00;;;0.90;;
77016;SDS011;65949;53.132;17.930;2024-03-17T01:05:08;8.20;;;0.90;;
77016;SDS011;65949;53.132;17.930;2024-03-17T01:07:35;7.40;;;0.60;;
77016;SDS011;65949;53.132;17.930;2024-03-17T01:10:01;9.00;;;0.60;;
77016;SDS011;65949;53.132;17.930;2024-03-17T01:12:28;8.80;;;1.10;;
77016;SDS011;65949;53.132;17.930;2024-03-17T01:14:54;9.00;;;1.10;;
77016;SDS011;65949;53.132;17.930;2024-03-17T01:17:21;6.50;;;0.60;;
77016;SDS011;65949;53.132;17.930;2024-03-17T01:19:48;6.00;;;0.50;;
77016;SDS011;65949;53.132;17.930;2024-03-17T01:22:14;10.20;;;1.00;;
77016;SDS011;65949;53.132;17.930;2024-03-17T01:24:40;7.70;;;0.80;;
77016;SDS011;65949;53.132;17.930;2024-03-17T01:27:12;12.20;;;1.70;;
77016;SDS011;65949;53.132;17.930;2024-03-17T01:29:42;9.40;;;1.00;;
77016;SDS011;65949;53.132;17.930;2024-03-17T01:32:09;12.00;;;0.70;;
77016;SDS011;65949;53.132;17.930;2024-03-17T01:34:37;5.90;;;1.10;;
77016;SDS011;65949;53.132;17.930;2024-03-17T01:37:04;11.00;;;1.40;;
77016;SDS011;65949;53.132;17.930;2024-03-17T01:39:31;10.20;;;1.40;;
77016;SDS011;65949;53.132;17.930;2024-03-17T01:41:58;9.40;;;1.20;;
77016;SDS011;65949;53.132;17.930;2024-03-17T01:44:26;7.40;;;1.00;;
77016;SDS011;65949;53.132;17.930;2024-03-17T01:46:56;10.60;;;1.50;;
77016;SDS011;65949;53.132;17.930;2024-03-17T01:49:23;7.50;;;1.50;;
77016;SDS011;65949;53.132;17.930;2024-03-17T01:51:52;8.90;;;1.60;;
77016;SDS011;65949;53.132;17.930;2024-03-17T01:54:20;9.60;;;1.40;;
77016;SDS011;65949;53.132;17.930;2024-03-17T01:56:47;8.20;;;1.20;;
77016;SDS011;65949;53.132;17.930;2024-03-17T01:59:14;11.00;;;1.30;;
77016;SDS011;65949;53.132;17.930;2024-03-17T02:01:41;12.30;;;1.30;;
77016;SDS011;65949;53.132;17.930;2024-03-17T02:04:07;9.60;;;1.10;;
77016;SDS011;65949;53.132;17.930;2024-03-17T02:06:34;7.20;;;1.10;;
77016;SDS011;65949;53.132;17.930;2024-03-17T02:09:00;8.70;;;1.10;;
77016;SDS011;65949;53.132;17.930;2024-03-17T02:11:28;8.70;;;0.90;;
77016;SDS011;65949;53.132;17.930;2024-03-17T02:13:56;6.80;;;0.90;;
77016;SDS011;65949;53.132;17.930;2024-03-17T02:16:23;14.50;;;1.60;;
77016;SDS011;65949;53.132;17.930;2024-03-17T02:18:56;10.70;;;1.20;;
77016;SDS011;65949;53.132;17.930;2024-03-17T02:21:24;7.70;;;1.00;;
77016;SDS011;65949;53.132;17.930;2024-03-17T02:23:54;6.10;;;0.60;;
77016;SDS011;65949;53.132;17.930;2024-03-17T02:26:21;8.50;;;0.70;;
77016;SDS011;65949;53.132;17.930;2024-03-17T02:28:49;6.50;;;0.80;;
77016;SDS011;65949;53.132;17.930;2024-03-17T02:31:15;10.30;;;1.40;;
77016;SDS011;65949;53.132;17.930;2024-03-17T02:33:43;8.80;;;1.10;;
77016;SDS011;65949;53.132;17.930;2024-03-17T02:36:11;8.90;;;0.80;;
77016;SDS011;65949;53.132;17.930;2024-03-17T02:38:38;7.70;;;0.80;;
77016;SDS011;65949;53.132;17.930;2024-03-17T02:41:25;7.80;;;1.10;;
77016;SDS011;65949;53.132;17.930;2024-03-17T02:43:52;9.20;;;1.40;;
77016;SDS011;65949;53.132;17.930;2024-03-17T02:46:19;7.30;;;1.00;;
77016;SDS011;65949;53.132;17.930;2024-03-17T02:48:47;7.90;;;0.80;;
77016;SDS011;65949;53.132;17.930;2024-03-17T02:51:17;8.40;;;1.00;;
77016;SDS011;65949;53.132;17.930;2024-03-17T02:53:46;8.20;;;0.70;;
77016;SDS011;65949;53.132;17.930;2024-03-17T02:56:14;7.00;;;1.00;;
77016;SDS011;65949;53.132;17.930;2024-03-17T02:58:45;12.10;;;1.00;;
77016;SDS011;65949;53.132;17.930;2024-03-17T03:01:13;6.00;;;0.70;;
77016;SDS011;65949;53.132;17.930;2024-03-17T03:03:41;6.30;;;0.70;;
77016;SDS011;65949;53.132;17.930;2024-03-17T03:06:08;8.30;;;0.80;;
77016;SDS011;65949;53.132;17.930;2024-03-17T03:08:39;7.00;;;0.80;;
77016;SDS011;65949;53.132;17.930;2024-03-17T03:11:08;8.60;;;0.80;;
77016;SDS011;65949;53.132;17.930;2024-03-17T03:13:38;6.20;;;0.70;;
77016;SDS011;65949;53.132;17.930;2024-03-17T03:16:06;8.50;;;0.80;;
77016;SDS011;65949;53.132;17.930;2024-03-17T03:18:37;8.40;;;1.40;;
77016;SDS011;65949;53.132;17.930;2024-03-17T03:21:05;9.60;;;0.90;;
77016;SDS011;65949;53.132;17.930;2024-03-17T03:23:32;8.80;;;1.00;;
77016;SDS011;65949;53.132;17.930;2024-03-17T03:25:59;12.00;;;1.00;;
77016;SDS011;65949;53.132;17.930;2024-03-17T03:28:30;8.60;;;0.80;;
77016;SDS011;65949;53.132;17.930;2024-03-17T03:30:57;5.70;;;0.40;;
77016;SDS011;65949;53.132;17.930;2024-03-17T03:33:24;7.50;;;0.70;;
77016;SDS011;65949;53.132;17.930;2024-03-17T03:35:50;7.20;;;0.70;;
77016;SDS011;65949;53.132;17.930;2024-03-17T03:38:17;7.40;;;0.60;;
77016;SDS011;65949;53.132;17.930;2024-03-17T03:40:45;11.10;;;1.10;;
77016;SDS011;65949;53.132;17.930;2024-03-17T03:43:11;7.90;;;0.80;;
77016;SDS011;65949;53.132;17.930;2024-03-17T03:45:40;5.90;;;0.70;;
77016;SDS011;65949;53.132;17.930;2024-03-17T03:48:07;8.50;;;0.50;;
77016;SDS011;65949;53.132;17.930;2024-03-17T03:50:34;5.20;;;0.60;;
77016;SDS011;65949;53.132;17.930;2024-03-17T03:53:01;9.30;;;0.80;;
77016;SDS011;65949;53.132;17.930;2024-03-17T03:55:28;8.10;;;0.90;;
77016;SDS011;65949;53.132;17.930;2024-03-17T03:57:55;6.00;;;0.70;;
77016;SDS011;65949;53.132;17.930;2024-03-17T04:00:22;9.00;;;0.50;;
77016;SDS011;65949;53.132;17.930;2024-03-17T04:02:50;8.00;;;0.70;;
77016;SDS011;65949;53.132;17.930;2024-03-17T04:05:19;5.20;;;0.50;;
77016;SDS011;65949;53.132;17.930;2024-03-17T04:07:46;7.60;;;1.10;;
77016;SDS011;65949;53.132;17.930;2024-03-17T04:10:14;8.50;;;0.60;;
77016;SDS011;65949;53.132;17.930;2024-03-17T04:12:42;7.70;;;1.00;;
77016;SDS011;65949;53.132;17.930;2024-03-17T04:15:08;9.50;;;0.70;;
77016;SDS011;65949;53.132;17.930;2024-03-17T04:17:38;8.80;;;1.10;;
77016;SDS011;65949;53.132;17.930;2024-03-17T04:20:05;8.90;;;0.80;;
77016;SDS011;65949;53.132;17.930;2024-03-17T04:22:34;11.20;;;0.90;;
77016;SDS011;65949;53.132;17.930;2024-03-17T04:25:01;5.50;;;0.50;;
77016;SDS011;65949;53.132;17.930;2024-03-17T04:27:29;7.20;;;0.80;;
77016;SDS011;65949;53.132;17.930;2024-03-17T04:29:57;8.40;;;0.80;;
77016;SDS011;65949;53.132;17.930;2024-03-17T04:32:25;5.10;;;0.70;;
77016;SDS011;65949;53.132;17.930;2024-03-17T04:34:54;7.20;;;0.70;;
77016;SDS011;65949;53.132;17.930;2024-03-17T04:37:21;6.20;;;0.90;;
77016;SDS011;65949;53.132;17.930;2024-03-17T04:39:48;7.70;;;1.10;;
77016;SDS011;65949;53.132;17.930;2024-03-17T04:42:15;8.60;;;0.90;;
77016;SDS011;65949;53.132;17.930;2024-03-17T04:44:44;9.40;;;1.30;;
77016;SDS011;65949;53.132;17.930;2024-03-17T04:47:11;16.00;;;4.90;;
77016;SDS011;65949;53.132;17.930;2024-03-17T04:49:39;10.80;;;2.90;;
77016;SDS011;65949;53.132;17.930;2024-03-17T04:52:07;39.30;;;12.00;;
77016;SDS011;65949;53.132;17.930;2024-03-17T04:54:34;21.60;;;6.70;;
77016;SDS011;65949;53.132;17.930;2024-03-17T04:57:01;46.00;;;11.80;;
77016;SDS011;65949;53.132;17.930;2024-03-17T04:59:28;99.10;;;24.70;;
77016;SDS011;65949;53.132;17.930;2024-03-17T05:01:55;107.30;;;25.60;;
77016;SDS011;65949;53.132;17.930;2024-03-17T05:04:22;117.90;;;26.00;;
77016;SDS011;65949;53.132;17.930;2024-03-17T05:06:48;59.60;;;13.90;;
77016;SDS011;65949;53.132;17.930;2024-03-17T05:09:16;121.40;;;26.80;;
77016;SDS011;65949;53.132;17.930;2024-03-17T05:11:43;265.70;;;54.20;;
77016;SDS011;65949;53.132;17.930;2024-03-17T05:14:10;113.00;;;26.10;;
77016;SDS011;65949;53.132;17.930;2024-03-17T05:16:37;187.50;;;39.60;;
77016;SDS011;65949;53.132;17.930;2024-03-17T05:19:04;82.80;;;14.00;;
77016;SDS011;65949;53.132;17.930;2024-03-17T05:21:31;34.10;;;4.70;;
77016;SDS011;65949;53.132;17.930;2024-03-17T05:23:57;8.30;;;0.90;;
77016;SDS011;65949;53.132;17.930;2024-03-17T05:26:27;19.50;;;1.80;;
77016;SDS011;65949;53.132;17.930;2024-03-17T05:28:54;12.40;;;0.80;;
77016;SDS011;65949;53.132;17.930;2024-03-17T05:31:20;4.70;;;0.60;;
77016;SDS011;65949;53.132;17.930;2024-03-17T05:33:48;3.70;;;0.80;;
77016;SDS011;65949;53.132;17.930;2024-03-17T05:36:15;4.50;;;0.60;;
77016;SDS011;65949;53.132;17.930;2024-03-17T05:38:42;7.70;;;1.00;;
77016;SDS011;65949;53.132;17.930;2024-03-17T05:41:09;5.20;;;0.50;;
77016;SDS011;65949;53.132;17.930;2024-03-17T05:43:36;3.60;;;0.40;;
77016;SDS011;65949;53.132;17.930;2024-03-17T05:46:05;4.20;;;0.70;;
77016;SDS011;65949;53.132;17.930;2024-03-17T05:48:33;2.30;;;0.40;;
77016;SDS011;65949;53.132;17.930;2024-03-17T05:51:07;4.70;;;0.50;;
77016;SDS011;65949;53.132;17.930;2024-03-17T05:53:36;3.40;;;0.50;;
77016;SDS011;65949;53.132;17.930;2024-03-17T05:56:06;6.50;;;0.80;;
77016;SDS011;65949;53.132;17.930;2024-03-17T05:58:38;4.20;;;0.80;;
77016;SDS011;65949;53.132;17.930;2024-03-17T06:01:05;4.70;;;0.50;;
77016;SDS011;65949;53.132;17.930;2024-03-17T06:03:35;7.40;;;0.70;;
77016;SDS011;65949;53.132;17.930;2024-03-17T06:06:02;5.90;;;0.60;;
77016;SDS011;65949;53.132;17.930;2024-03-17T06:08:30;2.80;;;0.40;;
77016;SDS011;65949;53.132;17.930;2024-03-17T06:10:57;5.30;;;0.50;;
77016;SDS011;65949;53.132;17.930;2024-03-17T06:13:24;3.90;;;0.70;;
77016;SDS011;65949;53.132;17.930;2024-03-17T06:15:51;4.20;;;0.50;;
77016;SDS011;65949;53.132;17.930;2024-03-17T06:18:17;4.60;;;0.40;;
77016;SDS011;65949;53.132;17.930;2024-03-17T06:20:45;4.40;;;0.60;;
77016;SDS011;65949;53.132;17.930;2024-03-17T06:23:13;7.00;;;0.90;;
77016;SDS011;65949;53.132;17.930;2024-03-17T06:25:42;5.70;;;0.90;;
77016;SDS011;65949;53.132;17.930;2024-03-17T06:28:11;3.80;;;0.40;;
77016;SDS011;65949;53.132;17.930;2024-03-17T06:30:41;4.10;;;0.30;;
77016;SDS011;65949;53.132;17.930;2024-03-17T06:33:16;5.70;;;1.00;;
77016;SDS011;65949;53.132;17.930;2024-03-17T06:35:45;4.00;;;0.60;;
77016;SDS011;65949;53.132;17.930;2024-03-17T06:38:13;3.90;;;0.40;;
77016;SDS011;65949;53.132;17.930;2024-03-17T06:40:42;5.40;;;0.70;;
77016;SDS011;65949;53.132;17.930;2024-03-17T06:43:14;3.30;;;0.50;;
77016;SDS011;65949;53.132;17.930;2024-03-17T06:45:40;3.70;;;0.40;;
77016;SDS011;65949;53.132;17.930;2024-03-17T06:48:07;2.90;;;0.50;;
77016;SDS011;65949;53.132;17.930;2024-03-17T06:50:33;6.60;;;1.10;;
77016;SDS011;65949;53.132;17.930;2024-03-17T06:53:00;4.60;;;0.70;;
77016;SDS011;65949;53.132;17.930;2024-03-17T06:55:26;4.80;;;0.60;;
77016;SDS011;65949;53.132;17.930;2024-03-17T06:57:54;4.40;;;0.70;;
77016;SDS011;65949;53.132;17.930;2024-03-17T07:00:20;5.20;;;0.70;;
77016;SDS011;65949;53.132;17.930;2024-03-17T07:02:51;6.00;;;0.80;;
77016;SDS011;65949;53.132;17.930;2024-03-17T07:05:17;7.10;;;1.20;;
77016;SDS011;65949;53.132;17.930;2024-03-17T07:07:45;8.00;;;2.20;;
77016;SDS011;65949;53.132;17.930;2024-03-17T07:10:12;5.50;;;1.30;;
77016;SDS011;65949;53.132;17.930;2024-03-17T07:12:39;6.90;;;1.20;;
77016;SDS011;65949;53.132;17.930;2024-03-17T07:15:06;5.00;;;1.40;;
77016;SDS011;65949;53.132;17.930;2024-03-17T07:17:33;2.80;;;0.50;;
77016;SDS011;65949;53.132;17.930;2024-03-17T07:20:00;4.20;;;0.90;;
77016;SDS011;65949;53.132;17.930;2024-03-17T07:22:27;3.10;;;0.60;;
77016;SDS011;65949;53.132;17.930;2024-03-17T07:24:54;3.90;;;0.60;;
77016;SDS011;65949;53.132;17.930;2024-03-17T07:27:29;4.00;;;0.80;;
77016;SDS011;65949;53.132;17.930;2024-03-17T07:29:56;4.00;;;0.60;;
77016;SDS011;65949;53.132;17.930;2024-03-17T07:32:22;4.10;;;0.50;;
77016;SDS011;65949;53.132;17.930;2024-03-17T07:34:52;3.60;;;0.60;;
77016;SDS011;65949;53.132;17.930;2024-03-17T07:37:18;5.40;;;0.60;;
77016;SDS011;65949;53.132;17.930;2024-03-17T07:39:45;3.00;;;0.60;;
77016;SDS011;65949;53.132;17.930;2024-03-17T07:42:15;3.60;;;0.50;;
77016;SDS011;65949;53.132;17.930;2024-03-17T07:44:45;2.90;;;0.70;;
77016;SDS011;65949;53.132;17.930;2024-03-17T07:47:12;4.00;;;0.50;;
77016;SDS011;65949;53.132;17.930;2024-03-17T07:49:38;5.50;;;1.20;;
77016;SDS011;65949;53.132;17.930;2024-03-17T07:52:05;5.30;;;1.20;;
77016;SDS011;65949;53.132;17.930;2024-03-17T07:54:32;5.70;;;1.40;;
77016;SDS011;65949;53.132;17.930;2024-03-17T07:57:01;3.90;;;1.10;;
77016;SDS011;65949;53.132;17.930;2024-03-17T07:59:28;4.80;;;1.00;;
77016;SDS011;65949;53.132;17.930;2024-03-17T08:01:56;16.00;;;4.60;;
77016;SDS011;65949;53.132;17.930;2024-03-17T08:04:23;52.70;;;14.10;;
77016;SDS011;65949;53.132;17.930;2024-03-17T08:06:49;120.20;;;26.90;;
77016;SDS011;65949;53.132;17.930;2024-03-17T08:09:16;91.50;;;18.50;;
77016;SDS011;65949;53.132;17.930;2024-03-17T08:11:42;66.20;;;12.70;;
77016;SDS011;65949;53.132;17.930;2024-03-17T08:14:13;111.80;;;21.10;;
77016;SDS011;65949;53.132;17.930;2024-03-17T08:16:41;174.10;;;32.60;;
77016;SDS011;65949;53.132;17.930;2024-03-17T08:19:08;204.20;;;37.10;;
77016;SDS011;65949;53.132;17.930;2024-03-17T08:21:35;43.80;;;7.70;;
77016;SDS011;65949;53.132;17.930;2024-03-17T08:24:01;35.10;;;5.10;;
77016;SDS011;65949;53.132;17.930;2024-03-17T08:26:29;25.90;;;3.80;;
77016;SDS011;65949;53.132;17.930;2024-03-17T08:28:56;21.10;;;3.30;;
77016;SDS011;65949;53.132;17.930;2024-03-17T08:31:23;9.80;;;2.50;;
77016;SDS011;65949;53.132;17.930;2024-03-17T08:33:49;13.60;;;2.30;;
77016;SDS011;65949;53.132;17.930;2024-03-17T08:36:16;10.80;;;2.10;;
77016;SDS011;65949;53.132;17.930;2024-03-17T08:38:45;3.70;;;0.70;;
77016;SDS011;65949;53.132;17.930;2024-03-17T08:41:14;5.00;;;0.90;;
77016;SDS011;65949;53.132;17.930;2024-03-17T08:43:40;2.70;;;0.30;;
77016;SDS011;65949;53.132;17.930;2024-03-17T08:46:09;1.30;;;0.20;;
77016;SDS011;65949;53.132;17.930;2024-03-17T08:48:38;1.30;;;0.30;;
77016;SDS011;65949;53.132;17.930;2024-03-17T08:51:06;3.50;;;0.70;;
77016;SDS011;65949;53.132;17.930;2024-03-17T08:53:33;2.30;;;0.40;;
77016;SDS011;65949;53.132;17.930;2024-03-17T08:56:00;2.90;;;0.40;;
77016;SDS011;65949;53.132;17.930;2024-03-17T08:58:29;1.60;;;0.30;;
77016;SDS011;65949;53.132;17.930;2024-03-17T09:00:56;3.90;;;0.50;;
77016;SDS011;65949;53.132;17.930;2024-03-17T09:03:22;3.10;;;0.60;;
77016;SDS011;65949;53.132;17.930;2024-03-17T09:05:50;3.40;;;0.60;;
77016;SDS011;65949;53.132;17.930;2024-03-17T09:08:21;7.10;;;1.10;;
77016;SDS011;65949;53.132;17.930;2024-03-17T09:10:50;3.30;;;0.50;;
77016;SDS011;65949;53.132;17.930;2024-03-17T09:13:19;7.00;;;1.20;;
77016;SDS011;65949;53.132;17.930;2024-03-17T09:15:57;3.70;;;1.00;;
77016;SDS011;65949;53.132;17.930;2024-03-17T09:18:32;3.90;;;0.60;;
77016;SDS011;65949;53.132;17.930;2024-03-17T09:21:06;5.60;;;0.80;;
77016;SDS011;65949;53.132;17.930;2024-03-17T09:23:34;4.00;;;0.50;;
77016;SDS011;65949;53.132;17.930;2024-03-17T09:26:02;2.30;;;0.50;;
77016;SDS011;65949;53.132;17.930;2024-03-17T09:28:35;2.00;;;0.50;;
77016;SDS011;65949;53.132;17.930;2024-03-17T09:31:02;4.90;;;1.10;;
77016;SDS011;65949;53.132;17.930;2024-03-17T09:33:31;2.80;;;0.60;;
77016;SDS011;65949;53.132;17.930;2024-03-17T09:35:59;3.80;;;0.70;;
77016;SDS011;65949;53.132;17.930;2024-03-17T09:38:27;4.50;;;0.80;;
77016;SDS011;65949;53.132;17.930;2024-03-17T09:40:55;4.20;;;1.00;;
77016;SDS011;65949;53.132;17.930;2024-03-17T09:43:29;4.70;;;1.10;;
77016;SDS011;65949;53.132;17.930;2024-03-17T09:46:01;2.60;;;0.50;;
77016;SDS011;65949;53.132;17.930;2024-03-17T09:48:28;4.80;;;1.10;;
77016;SDS011;65949;53.132;17.930;2024-03-17T09:50:56;5.80;;;1.50;;
77016;SDS011;65949;53.132;17.930;2024-03-17T09:53:31;4.20;;;0.90;;
77016;SDS011;65949;53.132;17.930;2024-03-17T09:58:27;3.10;;;0.60;;
77016;SDS011;65949;53.132;17.930;2024-03-17T10:00:54;2.60;;;0.40;;
77016;SDS011;65949;53.132;17.930;2024-03-17T10:06:06;3.80;;;0.50;;
77016;SDS011;65949;53.132;17.930;2024-03-17T10:08:33;3.40;;;0.40;;
77016;SDS011;65949;53.132;17.930;2024-03-17T10:11:00;1.10;;;0.30;;
77016;SDS011;65949;53.132;17.930;2024-03-17T10:13:27;1.80;;;0.50;;
77016;SDS011;65949;53.132;17.930;2024-03-17T10:15:53;3.50;;;0.60;;
77016;SDS011;65949;53.132;17.930;2024-03-17T10:18:20;2.10;;;0.40;;
77016;SDS011;65949;53.132;17.930;2024-03-17T10:20:50;4.60;;;0.80;;
77016;SDS011;65949;53.132;17.930;2024-03-17T10:23:21;3.10;;;0.50;;
77016;SDS011;65949;53.132;17.930;2024-03-17T10:25:49;2.30;;;0.40;;
77016;SDS011;65949;53.132;17.930;2024-03-17T10:28:16;2.40;;;0.50;;
77016;SDS011;65949;53.132;17.930;2024-03-17T10:30:58;3.20;;;0.70;;
77016;SDS011;65949;53.132;17.930;2024-03-17T10:33:25;2.40;;;0.40;;
77016;SDS011;65949;53.132;17.930;2024-03-17T10:36:02;3.10;;;0.40;;
77016;SDS011;65949;53.132;17.930;2024-03-17T10:38:31;1.70;;;0.30;;
77016;SDS011;65949;53.132;17.930;2024-03-17T10:40:58;1.70;;;0.40;;
77016;SDS011;65949;53.132;17.930;2024-03-17T10:43:26;1.20;;;0.30;;
77016;SDS011;65949;53.132;17.930;2024-03-17T10:45:53;2.80;;;0.50;;
77016;SDS011;65949;53.132;17.930;2024-03-17T10:48:24;1.60;;;0.30;;
77016;SDS011;65949;53.132;17.930;2024-03-17T10:50:56;2.50;;;0.40;;
77016;SDS011;65949;53.132;17.930;2024-03-17T10:53:27;6.30;;;1.30;;
77016;SDS011;65949;53.132;17.930;2024-03-17T10:56:00;5.60;;;1.40;;
77016;SDS011;65949;53.132;17.930;2024-03-17T10:58:35;1.70;;;0.30;;
77016;SDS011;65949;53.132;17.930;2024-03-17T11:01:04;17.30;;;4.50;;
77016;SDS011;65949;53.132;17.930;2024-03-17T11:03:33;27.10;;;8.20;;
77016;SDS011;65949;53.132;17.930;2024-03-17T11:06:02;3.80;;;0.90;;
77016;SDS011;65949;53.132;17.930;2024-03-17T11:08:31;3.50;;;0.60;;
77016;SDS011;65949;53.132;17.930;2024-03-17T11:11:00;33.20;;;11.70;;
77016;SDS011;65949;53.132;17.930;2024-03-17T11:13:27;9.60;;;1.90;;
77016;SDS011;65949;53.132;17.930;2024-03-17T11:15:55;6.50;;;1.30;;
77016;SDS011;65949;53.132;17.930;2024-03-17T11:18:27;3.30;;;0.60;;
77016;SDS011;65949;53.132;17.930;2024-03-17T11:24:00;2.20;;;0.30;;
77016;SDS011;65949;53.132;17.930;2024-03-17T11:26:28;3.20;;;0.30;;
77016;SDS011;65949;53.132;17.930;2024-03-17T11:28:57;3.10;;;0.50;;
77016;SDS011;65949;53.132;17.930;2024-03-17T11:31:35;1.50;;;0.20;;
77016;SDS011;65949;53.132;17.930;2024-03-17T11:34:05;3.90;;;0.50;;
77016;SDS011;65949;53.132;17.930;2024-03-17T11:36:35;2.00;;;0.30;;
77016;SDS011;65949;53.132;17.930;2024-03-17T11:39:05;3.30;;;0.70;;
77016;SDS011;65949;53.132;17.930;2024-03-17T11:47:02;2.60;;;0.60;;
77016;SDS011;65949;53.132;17.930;2024-03-17T11:49:31;1.30;;;0.40;;
77016;SDS011;65949;53.132;17.930;2024-03-17T11:52:00;3.20;;;0.50;;
77016;SDS011;65949;53.132;17.930;2024-03-17T11:54:29;2.40;;;0.30;;
77016;SDS011;65949;53.132;17.930;2024-03-17T11:57:04;2.80;;;0.50;;
77016;SDS011;65949;53.132;17.930;2024-03-17T11:59:32;3.20;;;0.60;;
77016;SDS011;65949;53.132;17.930;2024-03-17T12:01:59;3.00;;;0.50;;
77016;SDS011;65949;53.132;17.930;2024-03-17T12:04:28;2.50;;;0.40;;
77016;SDS011;65949;53.132;17.930;2024-03-17T12:06:56;2.80;;;0.60;;
77016;SDS011;65949;53.132;17.930;2024-03-17T12:12:02;3.40;;;0.90;;
77016;SDS011;65949;53.132;17.930;2024-03-17T12:14:31;1.80;;;0.30;;
77016;SDS011;65949;53.132;17.930;2024-03-17T12:17:01;2.50;;;0.30;;
77016;SDS011;65949;53.132;17.930;2024-03-17T12:19:30;4.00;;;0.90;;
77016;SDS011;65949;53.132;17.930;2024-03-17T12:22:00;3.60;;;1.20;;
77016;SDS011;65949;53.132;17.930;2024-03-17T12:24:28;2.90;;;0.60;;
77016;SDS011;65949;53.132;17.930;2024-03-17T12:26:57;6.60;;;1.60;;
77016;SDS011;65949;53.132;17.930;2024-03-17T12:29:30;6.80;;;2.10;;
77016;SDS011;65949;53.132;17.930;2024-03-17T12:32:03;6.10;;;1.50;;
77016;SDS011;65949;53.132;17.930;2024-03-17T12:34:33;4.00;;;1.10;;
77016;SDS011;65949;53.132;17.930;2024-03-17T12:37:00;4.90;;;1.60;;
77016;SDS011;65949;53.132;17.930;2024-03-17T12:39:28;7.10;;;1.40;;
77016;SDS011;65949;53.132;17.930;2024-03-17T12:42:12;3.60;;;0.80;;
77016;SDS011;65949;53.132;17.930;2024-03-17T12:45:09;6.00;;;1.40;;
77016;SDS011;65949;53.132;17.930;2024-03-17T12:47:36;3.00;;;0.40;;
77016;SDS011;65949;53.132;17.930;2024-03-17T12:50:08;2.30;;;0.40;;
77016;SDS011;65949;53.132;17.930;2024-03-17T12:52:43;2.40;;;0.50;;
77016;SDS011;65949;53.132;17.930;2024-03-17T12:55:18;5.10;;;0.90;;
77016;SDS011;65949;53.132;17.930;2024-03-17T13:00:59;7.40;;;1.60;;
77016;SDS011;65949;53.132;17.930;2024-03-17T13:03:35;7.40;;;1.70;;
77016;SDS011;65949;53.132;17.930;2024-03-17T13:06:08;8.40;;;1.10;;
77016;SDS011;65949;53.132;17.930;2024-03-17T13:08:36;5.90;;;1.00;;
77016;SDS011;65949;53.132;17.930;2024-03-17T13:11:03;12.50;;;3.60;;
77016;SDS011;65949;53.132;17.930;2024-03-17T13:13:35;11.50;;;3.00;;
77016;SDS011;65949;53.132;17.930;2024-03-17T13:16:02;7.60;;;2.10;;
77016;SDS011;65949;53.132;17.930;2024-03-17T13:18:29;6.30;;;1.60;;
77016;SDS011;65949;53.132;17.930;2024-03-17T13:20:55;4.10;;;0.90;;
77016;SDS011;65949;53.132;17.930;2024-03-17T13:23:24;4.40;;;0.60;;
77016;SDS011;65949;53.132;17.930;2024-03-17T13:25:51;2.50;;;0.60;;
77016;SDS011;65949;53.132;17.930;2024-03-17T13:28:17;7.10;;;1.50;;
77016;SDS011;65949;53.132;17.930;2024-03-17T13:30:44;13.60;;;2.60;;
77016;SDS011;65949;53.132;17.930;2024-03-17T13:33:10;10.90;;;2.70;;
77016;SDS011;65949;53.132;17.930;2024-03-17T13:35:38;32.30;;;7.30;;
77016;SDS011;65949;53.132;17.930;2024-03-17T13:38:06;9.30;;;1.50;;
77016;SDS011;65949;53.132;17.930;2024-03-17T13:40:37;6.80;;;1.30;;
77016;SDS011;65949;53.132;17.930;2024-03-17T13:43:05;4.40;;;0.60;;
77016;SDS011;65949;53.132;17.930;2024-03-17T13:45:39;6.40;;;1.30;;
77016;SDS011;65949;53.132;17.930;2024-03-17T13:48:07;3.70;;;0.90;;
77016;SDS011;65949;53.132;17.930;2024-03-17T13:50:38;5.80;;;1.20;;
77016;SDS011;65949;53.132;17.930;2024-03-17T13:53:10;30.80;;;7.10;;
77016;SDS011;65949;53.132;17.930;2024-03-17T13:55:37;9.60;;;1.80;;
77016;SDS011;65949;53.132;17.930;2024-03-17T13:58:04;4.90;;;0.70;;
77016;SDS011;65949;53.132;17.930;2024-03-17T14:00:31;4.00;;;0.60;;
77016;SDS011;65949;53.132;17.930;2024-03-17T14:03:02;5.30;;;1.00;;
77016;SDS011;65949;53.132;17.930;2024-03-17T14:05:28;5.60;;;1.30;;
77016;SDS011;65949;53.132;17.930;2024-03-17T14:07:55;8.20;;;1.70;;
77016;SDS011;65949;53.132;17.930;2024-03-17T14:10:22;6.90;;;1.40;;
77016;SDS011;65949;53.132;17.930;2024-03-17T14:12:50;4.90;;;0.90;;
77016;SDS011;65949;53.132;17.930;2024-03-17T14:15:16;9.50;;;2.60;;
77016;SDS011;65949;53.132;17.930;2024-03-17T14:17:44;7.00;;;1.40;;
77016;SDS011;65949;53.132;17.930;2024-03-17T14:20:12;7.70;;;1.40;;
77016;SDS011;65949;53.132;17.930;2024-03-17T14:22:40;9.90;;;1.90;;
77016;SDS011;65949;53.132;17.930;2024-03-17T14:25:09;6.90;;;2.40;;
77016;SDS011;65949;53.132;17.930;2024-03-17T14:27:39;7.30;;;2.20;;
77016;SDS011;65949;53.132;17.930;2024-03-17T14:30:05;11.00;;;3.40;;
77016;SDS011;65949;53.132;17.930;2024-03-17T14:32:34;15.70;;;4.20;;
77016;SDS011;65949;53.132;17.930;2024-03-17T14:35:00;7.60;;;1.90;;
77016;SDS011;65949;53.132;17.930;2024-03-17T14:37:27;4.30;;;0.80;;
77016;SDS011;65949;53.132;17.930;2024-03-17T14:39:54;8.80;;;1.30;;
77016;SDS011;65949;53.132;17.930;2024-03-17T14:42:20;8.60;;;2.20;;
77016;SDS011;65949;53.132;17.930;2024-03-17T14:44:47;11.80;;;2.90;;
77016;SDS011;65949;53.132;17.930;2024-03-17T14:47:15;6.50;;;1.30;;
77016;SDS011;65949;53.132;17.930;2024-03-17T14:49:42;4.30;;;0.90;;
77016;SDS011;65949;53.132;17.930;2024-03-17T14:52:09;10.10;;;1.80;;
77016;SDS011;65949;53.132;17.930;2024-03-17T14:54:36;8.30;;;1.70;;
77016;SDS011;65949;53.132;17.930;2024-03-17T14:57:02;10.60;;;2.60;;